INFORMACIÓN METAR y TAF
METAR FOR LEST
ADDS - METARS form results

(0153 UTC 01 August 2021)
Data provider http://aviationweather.gov/metar/data/
 
METAR text: LEST 010130Z 21003KT 9999 FEW015 SCT040 13/10 Q1019 NOSIG
Conditions at: LEST (SANTIAGO/LABACOL, ES) observed 0130 UTC 01 August 2021
Temperature: 13.0°C (55°F)
Dewpoint: 10.0°C (50°F) [RH = 82%]
Pressure (altimeter): 30.09 inches Hg (1019.0 mb)
Winds: from the SSW (210 degrees) at 3 MPH (3 knots; 1.5 m/s)
Visibility: 6 or more miles (10+ km)
Ceiling: at least 12,000 feet AGL
Clouds: few clouds at 1500 feet AGL
scattered clouds at 4000 feet AGL
Weather: no significant weather observed at this time

METAR text: LEST 010100Z 22003KT 190V260 9999 FEW015 SCT045 13/10 Q1020 NOSIG
Conditions at: LEST (SANTIAGO/LABACOL, ES) observed 0100 UTC 01 August 2021
Temperature: 13.0°C (55°F)
Dewpoint: 10.0°C (50°F) [RH = 82%]
Pressure (altimeter): 30.12 inches Hg (1020.0 mb)
Winds: from the SW (220 degrees) at 3 MPH (3 knots; 1.5 m/s)
Visibility: 6 or more miles (10+ km)
Ceiling: at least 12,000 feet AGL
Clouds: few clouds at 1500 feet AGL
scattered clouds at 4500 feet AGL
Weather: no significant weather observed at this time

Forecast for: LEST (SANTIAGO/LABACOL, ES)
Text: TAF LEST 312300Z 0100/0124 VRB03KT 9999 FEW015 SCT040 TX18/0112Z TN11/0106Z
Forecast period: 0000 UTC 01 August 2021 to 0000 UTC 02 August 2021
Forecast type: FROM: standard forecast or significant change
Winds: variable direction winds at 3 MPH (3 knots; 1.5 m/s)
Visibility: 6 or more miles (10+ km)
Ceiling: at least 12,000 feet AGL
Clouds: few clouds at 1500 feet AGL
scattered clouds at 4000 feet AGL
Weather: no significant weather forecast for this period
Text: PROB30
Forecast period: 0000 to 0700 UTC 01 August 2021
Forecast type: TEMPORARY: The following changes expected for less than half the time period
Visibility: 1.86 miles (2.99 km)
Ceiling: 1000 feet AGL
Clouds: broken clouds at 1000 feet AGL
Weather: BR  (mist)
Text: TEMPO 0100/0107 3000 BR BKN010
Forecast period: 1000 to 1500 UTC 01 August 2021
Forecast type: TEMPORARY: The following changes expected for less than half the time period
Winds: from the SW (220 degrees) at 12 MPH (10 knots; 5.1 m/s)
Visibility: missing
Ceiling: unknown
Clouds: missing
Weather: no significant weather forecast for this period

 MAPA DE AEROPUERTO

 INFORMACIÓN DE PISTA